Time;durP1;ratioP1;P1;durP2;ratioP2;P2;SDS_P1;SDS_P2;PMS_P1;PMS_P2;Temp;Humidity;BMP_temperature;BMP_pressure;BME280_temperature;BME280_humidity;BME280_pressure;Samples;Min_cycle;Max_cycle;Signal;HPM_P1;HPM_P2
2023/04/02 00:02:32;;;;;;;;;24.40;23.00;;;;;14.98;61.52;97665.47;6076315;28;96725;-64
2023/04/02 00:05:54;;;;;;;;;26.40;22.40;;;;;14.83;61.51;97645.72;6077441;28;96800;-64
2023/04/02 00:09:01;;;;;;;;;25.00;23.75;;;;;14.96;61.48;97659.47;6108875;28;96370;-64
2023/04/02 00:12:15;;;;;;;;;28.00;24.40;;;;;14.95;61.47;97657.88;6067069;28;97127;-64
2023/04/02 00:15:20;;;;;;;;;23.60;22.60;;;;;14.92;61.46;97661.13;6072964;28;96846;-64
2023/04/02 00:18:24;;;;;;;;;23.40;20.00;;;;;14.89;61.44;97652.75;6075254;28;98500;-64
2023/04/02 00:21:31;;;;;;;;;25.20;24.00;;;;;14.95;61.55;97662.50;6109102;28;96388;-64
2023/04/02 00:24:35;;;;;;;;;28.60;26.40;;;;;14.95;61.64;97665.22;6108860;28;96421;-64
2023/04/02 00:27:38;;;;;;;;;24.50;24.50;;;;;14.92;61.54;97665.75;6107491;28;96770;-64
2023/04/02 00:30:49;;;;;;;;;27.00;24.40;;;;;14.93;61.70;97670.09;6089955;28;96084;-64
2023/04/02 00:33:54;;;;;;;;;27.00;24.00;;;;;14.92;61.64;97669.28;6089365;28;98475;-64
2023/04/02 00:36:58;;;;;;;;;23.00;21.80;;;;;14.92;61.70;97673.91;6107373;28;96854;-64
2023/04/02 00:40:06;;;;;;;;;25.20;23.80;;;;;14.91;61.62;97667.66;6107359;28;96244;-64
2023/04/02 00:43:15;;;;;;;;;26.60;24.80;;;;;14.87;61.72;97666.59;6087677;28;96549;-64
2023/04/02 00:46:23;;;;;;;;;24.00;23.00;;;;;14.92;61.68;97677.41;6107959;28;96490;-64
2023/04/02 00:49:35;;;;;;;;;28.00;27.00;;;;;14.92;61.73;97671.19;6092840;28;96576;-64
2023/04/02 00:52:41;;;;;;;;;26.00;24.00;;;;;14.92;61.87;97677.41;6089183;28;99813;-64
2023/04/02 00:55:45;;;;;;;;;23.40;22.00;;;;;14.94;61.82;97679.88;6106422;28;96876;-64
2023/04/02 00:58:53;;;;;;;;;29.00;24.50;;;;;14.93;61.67;97689.09;6104057;28;96310;-64
2023/04/02 01:02:21;;;;;;;;;23.00;21.00;;;;;14.93;61.66;97684.47;6094991;28;96316;-64
2023/04/02 01:05:25;;;;;;;;;25.40;23.00;;;;;14.98;61.57;97691.78;6089472;28;97125;-64
2023/04/02 01:08:40;;;;;;;;;23.00;21.00;;;;;15.03;61.64;97697.19;6095808;28;96558;-64
2023/04/02 01:12:01;;;;;;;;;25.80;22.20;;;;;15.05;61.67;97697.72;6105557;28;96284;-64
2023/04/02 01:15:13;;;;;;;;;24.40;23.00;;;;;15.08;61.39;97699.88;6086131;28;96881;-64
2023/04/02 01:18:32;;;;;;;;;22.00;20.60;;;;;15.09;61.24;97704.22;6106033;28;96330;-64
2023/04/02 01:21:52;;;;;;;;;28.60;26.00;;;;;15.05;61.24;97705.88;6066495;28;98713;-65
2023/04/02 01:24:57;;;;;;;;;22.60;20.40;;;;;15.07;60.72;97704.50;6083894;28;96283;-65
2023/04/02 01:28:08;;;;;;;;;22.40;20.40;;;;;15.05;60.67;97703.16;6082848;28;96693;-64
2023/04/02 01:31:16;;;;;;;;;22.00;20.60;;;;;14.94;60.85;97693.44;6083198;28;96390;-64
2023/04/02 01:34:23;;;;;;;;;27.40;24.00;;;;;15.04;60.85;97712.38;6099915;28;96521;-64
2023/04/02 01:37:38;;;;;;;;;24.00;21.40;;;;;15.01;60.62;97711.03;6049208;28;96835;-64
2023/04/02 01:40:51;;;;;;;;;23.40;21.00;;;;;14.98;60.26;97714.31;6093351;28;96334;-64
2023/04/02 01:44:01;;;;;;;;;22.60;20.40;;;;;14.87;60.49;97698.34;6087124;28;96364;-64
2023/04/02 01:47:11;;;;;;;;;20.40;18.00;;;;;14.98;60.28;97706.16;6077950;28;96956;-63
2023/04/02 01:50:25;;;;;;;;;18.75;17.75;;;;;15.00;60.14;97711.31;6073799;28;95935;-64
2023/04/02 01:53:30;;;;;;;;;19.00;17.00;;;;;14.98;60.01;97711.59;6090006;28;96216;-64
2023/04/02 01:56:35;;;;;;;;;21.60;18.20;;;;;14.97;59.87;97714.56;6085245;28;96802;-64
2023/04/02 01:59:40;;;;;;;;;17.00;16.25;;;;;14.98;59.87;97717.03;6081490;28;96564;-64
2023/04/02 02:02:48;;;;;;;;;21.00;19.50;;;;;14.98;59.78;97721.63;6072696;28;96324;-64
2023/04/02 02:05:53;;;;;;;;;20.25;18.00;;;;;14.99;59.59;97720.56;6061669;28;96690;-62
2023/04/02 02:09:03;;;;;;;;;18.00;15.75;;;;;14.98;59.46;97722.44;6078423;28;96515;-64
2023/04/02 02:12:07;;;;;;;;;23.00;20.60;;;;;14.99;59.63;97726.78;6077901;28;96320;-63
2023/04/02 02:15:16;;;;;;;;;22.60;21.60;;;;;14.99;59.58;97732.22;6077774;28;96440;-62
2023/04/02 02:18:23;;;;;;;;;22.40;18.40;;;;;14.96;59.58;97731.94;6103558;28;96327;-64
2023/04/02 02:21:37;;;;;;;;;19.75;17.00;;;;;14.97;59.63;97733.56;6061431;28;98364;-63
2023/04/02 02:24:42;;;;;;;;;18.80;17.80;;;;;14.97;59.24;97741.72;6094359;28;96475;-63
2023/04/02 02:28:05;;;;;;;;;18.60;17.60;;;;;14.97;59.27;97737.09;6077519;28;96337;-64
2023/04/02 02:31:18;;;;;;;;;19.60;18.60;;;;;14.89;59.25;97731.44;6059199;28;98909;-63
2023/04/02 02:34:34;;;;;;;;;24.00;22.20;;;;;14.92;58.99;97737.13;6077934;28;96612;-63
2023/04/02 02:37:43;;;;;;;;;16.00;14.50;;;;;14.93;58.89;97740.66;6095361;28;96333;-64
2023/04/02 02:40:53;;;;;;;;;20.40;19.40;;;;;14.88;58.48;97746.09;6061694;28;96981;-63
2023/04/02 02:44:02;;;;;;;;;21.00;19.00;;;;;14.87;58.68;97742.56;6077187;28;96362;-64
2023/04/02 02:47:11;;;;;;;;;18.20;17.20;;;;;14.86;57.60;97746.38;6078143;28;97866;-64
2023/04/02 02:50:22;;;;;;;;;16.25;14.25;;;;;14.80;57.15;97743.97;6062118;28;98361;-64
2023/04/02 02:53:26;;;;;;;;;19.00;17.60;;;;;14.71;57.18;97739.09;6082184;28;96435;-64
2023/04/02 02:56:33;;;;;;;;;20.40;19.40;;;;;14.73;57.20;97755.09;6075707;28;96830;-64
2023/04/02 02:59:38;;;;;;;;;20.40;19.60;;;;;14.69;57.18;97762.97;6077147;28;96524;-64
2023/04/02 03:02:43;;;;;;;;;20.00;18.00;;;;;14.71;57.43;97766.22;6077059;28;96758;-63
2023/04/02 03:05:53;;;;;;;;;18.00;16.60;;;;;14.70;57.75;97767.31;6105248;28;96326;-63
2023/04/02 03:09:08;;;;;;;;;20.00;19.00;;;;;14.74;57.86;97770.28;6085233;28;96975;-63
2023/04/02 03:12:34;;;;;;;;;20.00;18.20;;;;;14.74;57.70;97773.00;6096425;28;96961;-63
2023/04/02 03:15:48;;;;;;;;;20.00;18.00;;;;;14.63;57.73;97760.53;6044917;28;98230;-63
2023/04/02 03:19:06;;;;;;;;;19.50;18.00;;;;;14.60;57.53;97764.63;6059230;28;96486;-64
2023/04/02 03:39:01;;;;;;;;;19.00;18.00;;;;;14.30;58.17;97784.44;6066748;28;97146;-63
2023/04/02 03:42:10;;;;;;;;;18.60;17.00;;;;;14.28;58.42;97785.78;6068647;28;96300;-64
2023/04/02 03:45:18;;;;;;;;;19.25;18.25;;;;;14.28;58.62;97785.78;6067657;28;96754;-63
2023/04/02 03:48:27;;;;;;;;;17.75;15.25;;;;;14.26;58.52;97794.22;6056432;28;96457;-64
2023/04/02 03:51:36;;;;;;;;;17.60;17.40;;;;;14.31;58.28;97802.34;6052099;28;96497;-64
2023/04/02 03:54:42;;;;;;;;;18.00;18.00;;;;;14.29;58.44;97800.97;6067326;28;96334;-63
2023/04/02 03:58:05;;;;;;;;;20.60;19.40;;;;;14.21;58.64;97799.63;6051588;28;96715;-63
2023/04/02 04:01:18;;;;;;;;;20.60;19.60;;;;;14.24;58.47;97817.22;6060816;28;97161;-63
2023/04/02 04:04:26;;;;;;;;;19.00;17.50;;;;;14.26;58.01;97818.59;6063950;28;96419;-63
2023/04/02 04:07:32;;;;;;;;;18.00;16.00;;;;;14.30;57.83;97811.56;6058475;28;96705;-64
2023/04/02 04:10:37;;;;;;;;;18.40;18.00;;;;;14.36;57.56;97808.84;6049654;28;96558;-63
2023/04/02 04:13:46;;;;;;;;;17.80;17.20;;;;;14.31;57.74;97799.63;6065337;28;96853;-64
2023/04/02 04:16:58;;;;;;;;;20.00;19.00;;;;;14.38;57.59;97812.91;6048569;28;97053;-63
2023/04/02 04:20:13;;;;;;;;;19.00;16.75;;;;;14.35;57.53;97813.44;6049302;28;96621;-63
2023/04/02 04:23:24;;;;;;;;;22.00;19.00;;;;;14.31;57.48;97821.31;6063930;28;96439;-63
2023/04/02 04:26:39;;;;;;;;;18.00;17.00;;;;;14.36;57.69;97831.38;6047567;28;98220;-63
2023/04/02 04:29:52;;;;;;;;;19.20;18.20;;;;;14.28;57.31;97821.03;6065319;28;96393;-63
2023/04/02 04:33:00;;;;;;;;;20.00;18.50;;;;;14.40;57.48;97837.88;6065195;28;96669;-63
2023/04/02 04:36:05;;;;;;;;;21.00;18.00;;;;;14.44;57.16;97835.44;6065551;28;96521;-63
2023/04/02 04:39:16;;;;;;;;;16.40;15.00;;;;;14.41;56.84;97841.41;6065283;28;96330;-64
2023/04/02 04:42:28;;;;;;;;;19.00;16.80;;;;;14.40;56.96;97845.19;6064617;28;96670;-64
2023/04/02 04:45:41;;;;;;;;;18.00;16.40;;;;;14.34;57.03;97844.34;6065190;28;96689;-63
2023/04/02 04:48:53;;;;;;;;;20.00;18.00;;;;;14.35;57.12;97845.97;6048446;28;96813;-64
2023/04/02 04:52:01;;;;;;;;;21.00;19.00;;;;;14.36;57.02;97854.94;6063382;28;96242;-63
2023/04/02 04:55:24;;;;;;;;;17.00;15.20;;;;;14.36;57.01;97857.63;6035056;28;98356;-63
2023/04/02 04:58:35;;;;;;;;;16.20;15.20;;;;;14.20;57.18;97833.22;6033134;28;98797;-63
2023/04/02 05:01:43;;;;;;;;;15.60;15.60;;;;;14.35;56.90;97866.84;6064166;28;97244;-63
2023/04/02 05:04:51;;;;;;;;;16.00;14.00;;;;;14.36;57.01;97868.50;6048926;28;96647;-64
2023/04/02 05:08:00;;;;;;;;;17.60;16.00;;;;;14.27;57.21;97876.31;6064762;28;96565;-63
2023/04/02 05:11:10;;;;;;;;;18.00;16.60;;;;;14.33;57.24;97876.06;6073720;28;96255;-63
2023/04/02 05:14:24;;;;;;;;;21.00;18.60;;;;;14.33;57.36;97884.19;6048584;28;96429;-63
2023/04/02 05:17:34;;;;;;;;;17.40;16.20;;;;;14.30;57.31;97887.47;6032626;28;96904;-63
2023/04/02 05:20:46;;;;;;;;;25.67;23.00;;;;;14.27;57.49;97889.88;6049188;28;96334;-63
2023/04/02 05:23:56;;;;;;;;;19.20;18.20;;;;;14.25;57.44;97892.06;6048691;28;96296;-63
2023/04/02 05:27:06;;;;;;;;;19.25;17.00;;;;;14.28;57.86;97896.94;6048633;28;98758;-63
2023/04/02 05:30:32;;;;;;;;;22.75;20.75;;;;;14.22;57.22;97898.81;6050644;28;97134;-65
2023/04/02 05:33:37;;;;;;;;;22.00;20.40;;;;;14.03;57.12;97892.28;6043159;28;96463;-60
2023/04/02 05:36:47;;;;;;;;;22.60;20.60;;;;;14.11;57.16;97890.97;6050398;28;96431;-63
2023/04/02 05:39:54;;;;;;;;;21.20;18.80;;;;;14.13;57.05;97900.44;6059362;28;96556;-63
2023/04/02 05:43:02;;;;;;;;;22.00;20.00;;;;;14.17;56.87;97904.22;6061514;28;96290;-63
2023/04/02 05:46:16;;;;;;;;;18.25;17.25;;;;;14.17;57.07;97906.16;6063728;28;96518;-63
2023/04/02 05:49:29;;;;;;;;;23.80;20.60;;;;;14.14;57.22;97903.97;6050878;28;96625;-63
2023/04/02 05:52:38;;;;;;;;;27.00;22.00;;;;;14.15;57.48;97903.69;6056586;28;97037;-63
2023/04/02 05:55:53;;;;;;;;;20.40;20.20;;;;;14.17;57.74;97906.16;6065994;28;96342;-63
2023/04/02 05:59:06;;;;;;;;;20.00;19.00;;;;;14.06;58.12;97909.91;6054868;28;96762;-63
2023/04/02 06:02:22;;;;;;;;;23.40;21.40;;;;;14.01;58.18;97912.63;6051905;28;96272;-63
2023/04/02 06:05:33;;;;;;;;;22.00;19.40;;;;;14.01;58.32;97901.78;6060308;28;96367;-63
2023/04/02 06:08:44;;;;;;;;;22.40;19.60;;;;;14.11;58.23;97915.34;6064890;28;97342;-63
2023/04/02 06:11:51;;;;;;;;;20.00;18.00;;;;;14.08;58.32;97916.69;6029010;28;99283;-63
2023/04/02 06:14:55;;;;;;;;;22.00;20.00;;;;;14.03;58.39;97929.41;6064337;28;96296;-63
2023/04/02 06:18:08;;;;;;;;;20.80;19.80;;;;;14.01;58.48;97918.84;6050191;28;96562;-63
2023/04/02 06:21:17;;;;;;;;;23.00;20.00;;;;;14.10;58.64;97929.97;6057859;28;96560;-63
2023/04/02 06:24:27;;;;;;;;;20.00;19.00;;;;;14.12;58.74;97930.53;6063017;28;96908;-63
2023/04/02 06:27:33;;;;;;;;;15.40;14.40;;;;;14.09;58.28;97931.88;6064175;28;96454;-63
2023/04/02 06:30:41;;;;;;;;;19.00;18.50;;;;;14.09;58.77;97940.00;6052527;28;96391;-63
2023/04/02 06:33:51;;;;;;;;;15.00;14.50;;;;;14.13;58.25;97941.09;6055271;28;96736;-63
2023/04/02 06:36:59;;;;;;;;;17.75;17.50;;;;;14.11;58.32;97942.44;6046378;28;96683;-63
2023/04/02 06:40:18;;;;;;;;;21.00;20.00;;;;;14.18;58.46;97951.94;6047880;28;96779;-63
2023/04/02 06:43:32;;;;;;;;;20.00;19.00;;;;;14.20;58.50;97955.22;6049883;28;97565;-63
2023/04/02 06:47:13;;;;;;;;;17.80;16.00;;;;;14.30;58.91;97957.13;6014057;28;96895;-63
2023/04/02 06:50:25;;;;;;;;;17.40;16.40;;;;;14.25;58.82;97955.22;6058306;28;96796;-63
2023/04/02 06:53:34;;;;;;;;;14.00;14.00;;;;;14.32;58.67;97963.91;6046798;28;96626;-63
2023/04/02 06:56:43;;;;;;;;;15.50;15.50;;;;;14.35;58.75;97959.03;6055412;28;97672;-63
2023/04/02 06:59:50;;;;;;;;;20.40;17.00;;;;;14.43;58.58;97963.94;6051347;28;97351;-63
2023/04/02 07:03:00;;;;;;;;;19.75;18.25;;;;;14.50;58.58;97968.06;6065462;28;96876;-63
2023/04/02 07:06:05;;;;;;;;;21.00;19.40;;;;;14.50;58.98;97972.66;6067287;28;96532;-63
2023/04/02 07:09:09;;;;;;;;;19.00;17.25;;;;;14.62;59.27;97976.72;6034642;28;96704;-63
2023/04/02 07:12:22;;;;;;;;;19.00;19.00;;;;;14.70;59.03;97969.97;6066973;28;96530;-63
2023/04/02 07:15:26;;;;;;;;;17.00;15.00;;;;;14.66;58.62;97971.59;6050527;28;96824;-63
2023/04/02 07:18:32;;;;;;;;;20.40;19.00;;;;;14.83;58.73;97974.84;6041067;28;96679;-62
2023/04/02 07:21:41;;;;;;;;;16.40;14.00;;;;;15.05;57.15;97980.03;6066160;28;96502;-62
2023/04/02 07:24:45;;;;;;;;;19.00;17.00;;;;;15.05;55.79;97969.94;6054468;28;96483;-63
2023/04/02 07:27:49;;;;;;;;;16.75;15.75;;;;;15.22;55.94;97985.16;6066412;28;96304;-63
2023/04/02 07:30:52;;;;;;;;;19.00;18.00;;;;;15.05;55.96;97994.38;6066286;28;97641;-63
2023/04/02 07:33:58;;;;;;;;;17.20;16.20;;;;;14.95;55.65;97999.00;6065611;28;96419;-63
2023/04/02 07:37:03;;;;;;;;;17.00;16.00;;;;;14.79;56.63;97989.22;6067170;28;96308;-63
2023/04/02 07:40:15;;;;;;;;;18.00;16.00;;;;;14.91;56.75;98001.44;6067418;28;96248;-63
2023/04/02 07:43:18;;;;;;;;;17.00;16.00;;;;;14.90;56.79;98012.59;6066729;28;96441;-63
2023/04/02 07:46:22;;;;;;;;;18.00;16.00;;;;;14.65;55.70;98010.66;6049278;28;98436;-63
2023/04/02 07:49:25;;;;;;;;;17.00;15.00;;;;;14.41;57.15;98014.94;6065166;28;96392;-63
2023/04/02 07:52:31;;;;;;;;;15.20;14.00;;;;;14.28;57.44;98014.31;6066284;28;96441;-63
2023/04/02 07:55:34;;;;;;;;;16.00;14.00;;;;;14.23;57.60;98025.16;6050025;28;96647;-63
2023/04/02 07:58:38;;;;;;;;;15.40;14.40;;;;;14.30;57.49;98022.19;6064168;28;98513;-63
2023/04/02 08:01:42;;;;;;;;;17.50;17.00;;;;;14.42;57.13;98032.81;6065799;28;96348;-63
2023/04/02 08:04:46;;;;;;;;;9.60;9.00;;;;;14.45;56.79;98033.13;6066638;28;96308;-63
2023/04/02 08:07:59;;;;;;;;;14.00;12.00;;;;;14.46;56.44;98036.66;6050491;28;96989;-63
2023/04/02 08:11:02;;;;;;;;;16.50;15.50;;;;;14.55;56.23;98038.56;6063665;28;96318;-63
2023/04/02 08:14:06;;;;;;;;;13.25;12.25;;;;;14.48;56.19;98034.47;6067553;28;96843;-63
2023/04/02 08:17:10;;;;;;;;;10.60;10.60;;;;;14.61;55.89;98050.25;6066311;28;96887;-63
2023/04/02 08:20:16;;;;;;;;;13.00;13.00;;;;;14.59;55.58;98055.94;6055958;28;96495;-63
2023/04/02 08:23:21;;;;;;;;;10.00;10.00;;;;;14.61;56.08;98067.31;6066191;28;96696;-63
2023/04/02 08:26:25;;;;;;;;;12.00;10.40;;;;;14.60;55.80;98063.00;6065344;28;96509;-63
2023/04/02 08:29:31;;;;;;;;;11.50;10.50;;;;;14.65;54.62;98068.44;6051260;28;96724;-63
2023/04/02 08:32:34;;;;;;;;;13.00;12.00;;;;;14.71;54.75;98077.38;6066330;28;97520;-63
2023/04/02 08:35:38;;;;;;;;;10.80;10.00;;;;;14.74;54.49;98083.09;6064338;28;96835;-63
2023/04/02 08:38:43;;;;;;;;;12.40;12.00;;;;;14.77;54.87;98089.06;6063885;28;96408;-63
2023/04/02 08:41:54;;;;;;;;;11.40;11.00;;;;;14.76;55.33;98090.97;6031701;28;98797;-63
2023/04/02 08:45:11;;;;;;;;;11.00;11.00;;;;;14.81;55.52;98112.69;6063651;28;96370;-63
2023/04/02 08:48:31;;;;;;;;;10.80;9.20;;;;;14.77;55.48;98119.72;6063504;28;96409;-63
2023/04/02 08:51:36;;;;;;;;;5.00;5.00;;;;;14.59;54.05;98133.78;6064690;28;96773;-63
2023/04/02 08:54:42;;;;;;;;;5.00;5.00;;;;;14.16;54.36;98124.91;6062639;28;96650;-63
2023/04/02 08:57:54;;;;;;;;;5.00;5.00;;;;;13.77;54.03;98131.69;6048448;28;96866;-62
2023/04/02 09:01:00;;;;;;;;;6.00;5.00;;;;;13.42;55.08;98141.19;6066701;28;96417;-64
2023/04/02 09:04:14;;;;;;;;;4.80;4.80;;;;;13.40;55.53;98146.03;6052632;28;98535;-64
2023/04/02 09:07:18;;;;;;;;;6.40;6.40;;;;;13.24;55.83;98155.06;6066088;28;97504;-64
2023/04/02 09:10:31;;;;;;;;;6.00;6.00;;;;;13.03;55.85;98156.75;6065161;28;96187;-64
2023/04/02 09:13:41;;;;;;;;;5.40;5.40;;;;;12.94;55.88;98171.81;6060800;28;96475;-64
2023/04/02 09:16:48;;;;;;;;;4.25;4.25;;;;;12.89;56.24;98169.06;6065329;28;96380;-64
2023/04/02 09:19:56;;;;;;;;;4.00;4.00;;;;;12.85;56.72;98177.94;6064707;28;96358;-64
2023/04/02 09:22:59;;;;;;;;;5.00;4.00;;;;;12.90;56.37;98188.81;6042835;28;96659;-64
2023/04/02 09:26:21;;;;;;;;;4.40;4.40;;;;;12.88;56.61;98193.63;6064606;28;96453;-64
2023/04/02 09:29:47;;;;;;;;;4.00;3.80;;;;;12.80;56.59;98194.09;6039399;28;97461;-62
2023/04/02 09:32:52;;;;;;;;;5.00;5.00;;;;;12.90;55.97;98202.34;6059513;28;96407;-64
2023/04/02 09:35:57;;;;;;;;;5.00;4.00;;;;;12.95;55.61;98210.50;6064486;28;96573;-64
2023/04/02 09:39:05;;;;;;;;;7.00;6.00;;;;;12.99;55.49;98217.88;6049531;28;97191;-62
2023/04/02 09:42:29;;;;;;;;;5.20;5.20;;;;;13.08;55.61;98220.09;6046674;28;96937;-62
2023/04/02 09:45:33;;;;;;;;;5.00;5.00;;;;;13.19;54.86;98232.72;6061281;28;96711;-62
2023/04/02 09:48:42;;;;;;;;;5.00;5.00;;;;;13.10;54.85;98228.78;6045717;28;97251;-62
2023/04/02 09:51:46;;;;;;;;;7.00;7.00;;;;;13.00;55.14;98241.13;6064187;28;96222;-62
2023/04/02 09:55:17;;;;;;;;;5.60;5.00;;;;;12.97;55.33;98247.03;6059836;28;96869;-62
2023/04/02 09:58:22;;;;;;;;;3.00;3.00;;;;;12.87;55.06;98248.81;6064951;28;96329;-62
2023/04/02 10:01:30;;;;;;;;;4.00;3.00;;;;;12.69;55.23;98249.94;6053303;28;96288;-62
2023/04/02 10:04:37;;;;;;;;;4.00;4.00;;;;;12.59;55.49;98244.41;6061790;28;99125;-62
2023/04/02 10:07:42;;;;;;;;;6.40;6.40;;;;;12.46;55.50;98264.47;6063360;28;96972;-62
2023/04/02 10:10:50;;;;;;;;;4.00;4.00;;;;;12.45;55.92;98268.28;6064221;28;97183;-62
2023/04/02 10:13:58;;;;;;;;;5.00;5.00;;;;;12.43;55.87;98288.50;6066911;28;97215;-62
2023/04/02 10:17:12;;;;;;;;;4.40;4.40;;;;;12.37;56.01;98289.50;6070500;28;96625;-63
2023/04/02 10:20:25;;;;;;;;;7.00;7.00;;;;;12.32;56.60;98298.34;6073958;28;96271;-62
2023/04/02 10:23:30;;;;;;;;;5.60;4.60;;;;;12.22;57.06;98306.28;6063654;28;96306;-63
2023/04/02 10:26:45;;;;;;;;;4.60;4.40;;;;;12.28;57.28;98308.00;6053541;28;97295;-63
2023/04/02 10:30:05;;;;;;;;;4.00;4.00;;;;;12.30;56.84;98310.47;6051006;28;96579;-63
2023/04/02 10:33:18;;;;;;;;;6.00;5.40;;;;;12.37;57.31;98319.22;6071961;28;96612;-62
2023/04/02 10:36:42;;;;;;;;;7.00;6.50;;;;;12.39;56.54;98315.22;6070673;28;96308;-62
2023/04/02 10:39:52;;;;;;;;;5.00;5.00;;;;;12.58;56.41;98329.28;6070503;28;96379;-62
2023/04/02 10:43:12;;;;;;;;;6.00;5.50;;;;;12.66;56.62;98338.88;6070180;28;96342;-62
2023/04/02 10:46:22;;;;;;;;;5.00;5.00;;;;;12.76;56.20;98342.53;6070655;28;96353;-62
2023/04/02 10:49:38;;;;;;;;;5.80;5.20;;;;;12.87;55.82;98344.31;6071782;28;96360;-63
2023/04/02 10:52:49;;;;;;;;;5.60;5.60;;;;;12.85;55.04;98361.88;6069412;28;96649;-62
2023/04/02 10:55:56;;;;;;;;;5.00;3.60;;;;;12.80;54.60;98356.38;6071610;28;96292;-62
2023/04/02 10:59:05;;;;;;;;;3.00;3.00;;;;;12.67;54.20;98348.59;6071276;28;96409;-63
2023/04/02 11:02:25;;;;;;;;;5.00;4.00;;;;;12.78;54.55;98361.22;6071351;28;96598;-63
2023/04/02 11:05:36;;;;;;;;;6.00;6.00;;;;;12.79;54.53;98370.97;6070157;28;96504;-62
2023/04/02 11:08:42;;;;;;;;;5.00;5.00;;;;;12.80;53.40;98376.16;6071543;28;96253;-63
2023/04/02 11:11:50;;;;;;;;;4.60;3.60;;;;;12.88;53.67;98385.72;6072022;28;96822;-63
2023/04/02 11:14:56;;;;;;;;;7.00;7.00;;;;;12.95;53.29;98389.06;6053223;28;96510;-62
2023/04/02 11:18:00;;;;;;;;;4.60;4.60;;;;;12.94;52.94;98390.97;6053508;28;98497;-62
2023/04/02 11:21:06;;;;;;;;;6.00;6.00;;;;;13.00;52.59;98395.34;6061433;28;96386;-62
2023/04/02 11:24:24;;;;;;;;;3.00;3.00;;;;;13.20;53.33;98388.59;6070411;28;96520;-62
2023/04/02 11:27:30;;;;;;;;;3.00;3.00;;;;;13.29;53.10;98401.47;6059053;28;96446;-62
2023/04/02 11:30:34;;;;;;;;;7.50;7.50;;;;;13.24;52.79;98412.22;6049793;28;98468;-62
2023/04/02 11:33:41;;;;;;;;;5.00;5.00;;;;;13.13;52.07;98413.16;6066992;28;96510;-62
2023/04/02 11:37:07;;;;;;;;;6.50;6.50;;;;;13.00;52.21;98419.72;6048465;28;98359;-62
2023/04/02 11:40:45;;;;;;;;;6.20;6.20;;;;;12.81;52.25;98428.34;6068274;28;96483;-63
2023/04/02 11:43:59;;;;;;;;;5.80;5.40;;;;;12.75;52.77;98426.66;6058054;28;96600;-63
2023/04/02 11:47:17;;;;;;;;;5.00;5.00;;;;;12.66;52.31;98438.94;6084773;28;97535;-63
2023/04/02 11:50:34;;;;;;;;;4.60;4.60;;;;;12.54;51.88;98433.59;6052601;28;96430;-61
2023/04/02 11:53:42;;;;;;;;;5.60;5.60;;;;;12.50;51.92;98445.97;6063400;28;96388;-63
2023/04/02 11:56:52;;;;;;;;;5.00;5.00;;;;;12.41;51.48;98444.75;6068689;28;98650;-63
2023/04/02 12:00:14;;;;;;;;;4.20;4.20;;;;;12.40;52.25;98448.50;6064547;28;96336;-62
2023/04/02 12:03:35;;;;;;;;;4.75;4.75;;;;;12.34;52.44;98447.59;6070246;28;96566;-62
2023/04/02 12:06:54;;;;;;;;;5.50;5.50;;;;;12.45;52.55;98451.28;6064516;28;96349;-62
2023/04/02 12:10:00;;;;;;;;;5.80;5.80;;;;;12.48;52.39;98457.03;6070471;28;96374;-62
2023/04/02 12:13:03;;;;;;;;;7.60;5.80;;;;;12.13;51.88;98403.16;6069937;28;96620;-63
2023/04/02 12:16:08;;;;;;;;;4.00;4.00;;;;;12.50;52.42;98459.50;6069543;28;96401;-62
2023/04/02 12:19:17;;;;;;;;;5.60;5.60;;;;;12.51;52.03;98461.94;6064603;28;96593;-61
2023/04/02 12:22:24;;;;;;;;;6.00;5.60;;;;;12.57;52.38;98468.25;6069942;28;96406;-63
2023/04/02 12:25:31;;;;;;;;;4.20;4.20;;;;;12.63;53.00;98466.44;6064064;28;96836;-63
2023/04/02 12:28:37;;;;;;;;;6.00;5.60;;;;;12.55;52.75;98468.50;6060766;28;99684;-62
2023/04/02 12:31:43;;;;;;;;;6.00;6.00;;;;;12.62;52.97;98473.75;6069556;28;96278;-62
2023/04/02 12:34:46;;;;;;;;;6.00;5.75;;;;;12.65;52.41;98470.56;6050928;28;96509;-63
2023/04/02 12:37:53;;;;;;;;;5.20;5.20;;;;;12.63;52.66;98461.88;6065621;28;96701;-63
2023/04/02 12:40:58;;;;;;;;;8.00;8.00;;;;;12.72;53.09;98479.31;6066811;28;96859;-63
2023/04/02 12:44:04;;;;;;;;;8.00;7.40;;;;;12.64;52.62;98474.34;6032687;28;96687;-63
2023/04/02 12:47:07;;;;;;;;;7.00;7.00;;;;;12.55;53.59;98482.03;6034773;28;96433;-63
2023/04/02 12:50:15;;;;;;;;;7.60;7.60;;;;;12.53;53.92;98477.91;6048832;28;98456;-63
2023/04/02 12:53:23;;;;;;;;;8.00;7.00;;;;;12.48;52.83;98481.34;6048705;28;96880;-63
2023/04/02 12:56:26;;;;;;;;;5.00;5.00;;;;;12.58;52.76;98483.41;6056132;28;96467;-63
2023/04/02 12:59:34;;;;;;;;;6.00;6.00;;;;;12.61;53.21;98485.63;6063881;28;97865;-63
2023/04/02 13:02:45;;;;;;;;;5.40;5.40;;;;;12.61;52.77;98491.03;6061757;28;98444;-63
2023/04/02 13:05:53;;;;;;;;;7.00;6.20;;;;;12.58;52.78;98497.75;6064037;28;96732;-63
2023/04/02 13:08:58;;;;;;;;;5.80;5.80;;;;;12.51;53.00;98499.78;6065676;28;97204;-63
2023/04/02 13:12:02;;;;;;;;;8.00;7.80;;;;;12.47;52.63;98501.34;6065097;28;97607;-66
2023/04/02 13:15:08;;;;;;;;;6.00;6.00;;;;;12.47;53.63;98497.81;6050353;28;96444;-65
2023/04/02 13:18:20;;;;;;;;;9.00;9.00;;;;;12.44;53.57;98511.81;6046973;28;97745;-65
2023/04/02 13:21:27;;;;;;;;;7.50;7.50;;;;;12.41;53.88;98499.59;6048712;28;96657;-65
2023/04/02 13:24:33;;;;;;;;;8.80;8.00;;;;;12.38;54.29;98513.63;6049281;28;96939;-63
2023/04/02 13:27:36;;;;;;;;;7.00;6.80;;;;;12.36;54.37;98515.75;6066147;28;96739;-63
2023/04/02 13:30:39;;;;;;;;;9.40;9.00;;;;;12.34;55.03;98519.75;6064479;28;96295;-63
2023/04/02 13:33:43;;;;;;;;;10.00;10.00;;;;;12.34;54.39;98517.03;6065857;28;96528;-63
2023/04/02 13:36:46;;;;;;;;;13.40;12.60;;;;;12.27;54.12;98521.75;6064847;28;96402;-63
2023/04/02 13:39:51;;;;;;;;;10.00;9.00;;;;;12.26;54.76;98525.56;6064746;28;96511;-63
2023/04/02 13:42:55;;;;;;;;;10.60;9.60;;;;;12.28;54.45;98528.81;6062325;28;96460;-63
2023/04/02 13:46:01;;;;;;;;;9.00;9.00;;;;;12.20;54.39;98523.81;6060399;28;97043;-65
2023/04/02 13:49:04;;;;;;;;;11.00;11.00;;;;;12.28;54.37;98531.53;6048471;28;96812;-63
2023/04/02 13:52:14;;;;;;;;;11.60;11.00;;;;;12.21;53.83;98522.75;6050282;28;97234;-63
2023/04/02 13:55:22;;;;;;;;;8.33;8.00;;;;;12.28;54.10;98542.34;6067237;28;97568;-63
2023/04/02 13:58:25;;;;;;;;;11.00;10.00;;;;;12.13;53.83;98540.97;6053524;28;96827;-63
2023/04/02 14:01:29;;;;;;;;;12.00;12.00;;;;;12.07;54.04;98541.13;6068641;28;97574;-63
2023/04/02 14:04:38;;;;;;;;;12.00;11.25;;;;;12.04;54.50;98534.31;6068822;28;96969;-63
2023/04/02 14:07:56;;;;;;;;;9.60;9.00;;;;;12.04;54.94;98541.59;6068793;28;97513;-63
2023/04/02 14:11:19;;;;;;;;;9.20;9.20;;;;;12.04;54.97;98538.88;6069146;28;96634;-63
2023/04/02 14:14:39;;;;;;;;;10.50;10.50;;;;;12.03;54.82;98548.88;6051856;28;96415;-63
2023/04/02 14:17:56;;;;;;;;;7.00;7.00;;;;;12.08;54.40;98551.69;6071122;28;96553;-63
2023/04/02 14:21:10;;;;;;;;;9.00;8.40;;;;;12.09;54.06;98558.72;6068180;28;96301;-63
2023/04/02 14:24:20;;;;;;;;;7.00;7.00;;;;;12.14;53.89;98558.84;6051923;28;97077;-63
2023/04/02 14:27:37;;;;;;;;;7.25;7.25;;;;;12.07;53.78;98568.16;6052302;28;96517;-63
2023/04/02 14:30:51;;;;;;;;;10.00;9.40;;;;;12.11;54.59;98569.31;6049540;28;99205;-63
2023/04/02 14:34:03;;;;;;;;;10.00;9.40;;;;;11.99;53.85;98585.53;6051019;28;96216;-63
2023/04/02 14:37:17;;;;;;;;;10.00;9.00;;;;;12.06;54.57;98588.94;6068887;28;96389;-63
2023/04/02 14:40:27;;;;;;;;;11.00;11.00;;;;;12.06;54.32;98588.13;6050731;28;98529;-63
2023/04/02 14:43:39;;;;;;;;;8.00;8.00;;;;;12.10;54.43;98587.41;6069335;28;96724;-63
2023/04/02 14:46:43;;;;;;;;;6.00;6.00;;;;;12.12;52.41;98604.19;6054631;28;96762;-63
2023/04/02 14:49:53;;;;;;;;;7.00;7.00;;;;;12.21;53.14;98607.34;6068682;28;96438;-63
2023/04/02 14:53:01;;;;;;;;;6.20;5.20;;;;;12.13;52.65;98603.13;6072576;28;96412;-63
2023/04/02 14:56:08;;;;;;;;;6.20;6.20;;;;;12.13;52.92;98605.00;6041060;28;98474;-63
2023/04/02 14:59:27;;;;;;;;;6.50;6.50;;;;;12.18;52.44;98594.31;6066069;28;96852;-63